D/T METAR WX W/DIR W/SPE G/SPE TEMP DEWP
6/06/20 10:30 EICK 060930Z 30021G31KT 9999 BKN019 BKN045 10/05 Q1007 NOSIG WNW (300°) 24.2mph 35.7mph 10°C 5°C
6/06/20 10:00 EICK 060900Z 30020G30KT 9999 BKN019 BKN100 10/05 Q1007 NOSIG WNW (300°) 23.0mph 34.5mph 10°C 5°C
6/06/20 09:30 EICK 060830Z 30023KT 9999 BKN019 BKN110 10/05 Q1007 NOSIG WNW (300°) 26.5mph 10°C 5°C
6/06/20 09:00 EICK 060800Z 30021G31KT 9999 BKN020 BKN110 09/04 Q1006 NOSIG WNW (300°) 24.2mph 35.7mph 9°C 4°C
6/06/20 08:30 EICK 060730Z 30020KT 9999 BKN020 SCT110 09/04 Q1007 NOSIG WNW (300°) 23.0mph 9°C 4°C
6/06/20 08:00 EICK 060700Z 30020KT 9999 SCT019 SCT110 08/03 Q1006 NOSIG WNW (300°) 23.0mph 8°C 3°C
6/06/20 07:30 EICK 060630Z 30017G28KT 9999 FEW019 08/04 Q1007 NOSIG WNW (300°) 19.6mph 32.2mph 8°C 4°C
6/06/20 07:00 EICK 060600Z 30017KT 9999 FEW027 07/03 Q1007 NOSIG WNW (300°) 19.6mph 7°C 3°C
6/06/20 06:30 EICK 060530Z 29014KT 9999 FEW027 07/03 Q1006 NOSIG WNW (290°) 16.1mph 7°C 3°C
6/06/20 06:00 EICK 060500Z 29011KT 9999 FEW027 06/03 Q1007 NOSIG WNW (290°) 12.7mph 6°C 3°C
6/06/20 05:30 EICK 060430Z 29012KT 9999 FEW030 06/02 Q1007 NOSIG WNW (290°) 13.8mph 6°C 2°C
6/06/20 05:00 EICK 060400Z 29012KT 9999 FEW030 06/02 Q1007 NOSIG WNW (290°) 13.8mph 6°C 2°C
6/06/20 04:30 EICK 060330Z 28010KT 9999 FEW023 06/02 Q1007 NOSIG W (280°) 11.5mph 6°C 2°C
6/06/20 04:00 EICK 060300Z 29011KT 9999 FEW023 06/02 Q1007 NOSIG WNW (290°) 12.7mph 6°C 2°C
6/06/20 03:30 EICK 060230Z 29010KT 9999 FEW030 06/03 Q1007 NOSIG WNW (290°) 11.5mph 6°C 3°C
6/06/20 03:00 EICK 060200Z 29010KT 9999 FEW030 06/02 Q1007 NOSIG WNW (290°) 11.5mph 6°C 2°C
6/06/20 02:30 EICK 060130Z 30011KT 9999 FEW016CB 06/02 Q1007 NOSIG WNW (300°) 12.7mph 6°C 2°C
6/06/20 02:00 EICK 060100Z 31013KT 9999 FEW016CB 07/02 Q1007 NOSIG NW (310°) 15.0mph 7°C 2°C
6/06/20 01:30 EICK 060030Z 31011KT 9999 FEW016CB 07/02 Q1007 NOSIG NW (310°) 12.7mph 7°C 2°C
6/06/20 01:00 EICK 060000Z 31013KT 9999 FEW016CB 07/02 Q1007 NOSIG NW (310°) 15.0mph 7°C 2°C
6/06/20 00:30 EICK 052330Z 31016KT 9999 FEW016CB 07/02 Q1007 NOSIG NW (310°) 18.4mph 7°C 2°C
6/06/20 00:00 EICK 052300Z 32018KT 9999 FEW016CB 07/03 Q1007 NOSIG NW (320°) 20.7mph 7°C 3°C
5/06/20 23:30 EICK 052230Z 32015KT 9999 FEW016CB 07/03 Q1007 NOSIG NW (320°) 17.3mph 7°C 3°C
5/06/20 23:00 EICK 052200Z 32012KT 9999 SCT016CB 08/05 Q1007 NOSIG NW (320°) 13.8mph 8°C 5°C
5/06/20 22:30 EICK 052130Z 33011KT 9999 SCT016CB 08/06 Q1007 NOSIG NNW (330°) 12.7mph 8°C 6°C
5/06/20 22:00 EICK 052100Z 32011KT 9999 BKN020 08/05 Q1006 NOSIG NW (320°) 12.7mph 8°C 5°C
5/06/20 21:30 EICK 052030Z 32013KT 9999 SCT020 08/06 Q1006 NOSIG NW (320°) 15.0mph 8°C 6°C
5/06/20 21:00 EICK 052000Z 35012KT 9999 BKN020 09/05 Q1006 NOSIG N (350°) 13.8mph 9°C 5°C
5/06/20 20:30 EICK 051930Z 34013KT 9999 BKN030 10/05 Q1005 NOSIG NNW (340°) 15.0mph 10°C 5°C
5/06/20 20:00 EICK 051900Z 34013KT 9999 SCT030 SCT050 10/05 Q1005 NOSIG NNW (340°) 15.0mph 10°C 5°C
5/06/20 19:30 EICK 051830Z 31021G31KT 9999 SCT040 12/02 Q1005 NOSIG NW (310°) 24.2mph 35.7mph 12°C 2°C
5/06/20 19:00 EICK 051800Z 31020KT 9999 FEW042 13/02 Q1004 NOSIG NW (310°) 23.0mph 13°C 2°C
5/06/20 18:30 EICK 051730Z 30025G37KT 9999 FEW043 13/01 Q1004 NOSIG WNW (300°) 28.8mph 42.6mph 13°C 1°C
5/06/20 18:00 EICK 051700Z 31022G32KT 9999 SCT048 14/02 Q1004 NOSIG NW (310°) 25.3mph 36.8mph 14°C 2°C
5/06/20 17:00 EICK 051600Z 30022KT 9999 SCT045 15/02 Q1003 NOSIG WNW (300°) 25.3mph 15°C 2°C
5/06/20 16:30 EICK 051530Z 32020KT 9999 SCT043 14/03 Q1003 NOSIG NW (320°) 23.0mph 14°C 3°C
5/06/20 16:00 EICK 051500Z 31018KT 9999 BKN045 15/03 Q1004 NOSIG NW (310°) 20.7mph 15°C 3°C
5/06/20 15:30 EICK 051430Z 32016G28KT 9999 BKN040 15/04 Q1003 NOSIG NW (320°) 18.4mph 32.2mph 15°C 4°C
5/06/20 15:00 EICK 051400Z 31017KT 9999 BKN040 15/05 Q1003 NOSIG NW (310°) 19.6mph 15°C 5°C
5/06/20 14:30 EICK 051330Z 31010KT 280V350 9999 BKN032 15/06 Q1003 NOSIG NW (310°) 11.5mph 15°C 6°C
5/06/20 14:00 EICK 051300Z 33011KT 9999 SCT028 SCT060 13/07 Q1004 NOSIG NNW (330°) 12.7mph 13°C 7°C
5/06/20 13:30 EICK 051230Z 35012KT 9999 BKN028 BKN050 12/07 Q1004 NOSIG N (350°) 13.8mph 12°C 7°C
5/06/20 13:00 EICK 051200Z 35012KT 9999 BKN025 BKN060 13/08 Q1004 NOSIG N (350°) 13.8mph 13°C 8°C
5/06/20 12:30 EICK 051130Z 30014KT 270V340 9999 BKN022 BKN050 14/07 Q1003 NOSIG WNW (300°) 16.1mph 14°C 7°C
5/06/20 12:00 EICK 051100Z 30013KT 9999 FEW015 BKN022 14/08 Q1003 NOSIG WNW (300°) 15.0mph 14°C 8°C
5/06/20 11:30 EICK 051030Z 31013KT 280V340 9999 FEW015 BKN022 BKN044 14/07 Q1003 NOSIG NW (310°) 15.0mph 14°C 7°C
5/06/20 11:00 EICK 051000Z 32013KT 9999 FEW015 BKN020 BKN043 13/07 Q1003 NOSIG NW (320°) 15.0mph 13°C 7°C
5/06/20 10:30 EICK 050930Z 31013KT 9999 FEW015 BKN020 13/08 Q1003 NOSIG NW (310°) 15.0mph 13°C 8°C
5/06/20 10:00 EICK 050900Z 31013KT 9999 SCT015 BKN032 12/08 Q1004 NOSIG NW (310°) 15.0mph 12°C 8°C
5/06/20 09:30 EICK 050830Z 30013KT 9999 SCT012 BKN021 BKN060 11/08 Q1004 NOSIG WNW (300°) 15.0mph 11°C 8°C
5/06/20 09:00 EICK 050800Z 30013KT 9999 -SHRA SCT012 BKN016 11/08 Q1004 NOSIG -SHRA WNW (300°) 15.0mph 11°C 8°C
5/06/20 08:30 EICK 050730Z 30014KT 9999 SCT014 BKN040 12/08 Q1003 NOSIG WNW (300°) 16.1mph 12°C 8°C
5/06/20 08:00 EICK 050700Z 30012KT 9999 SCT014 BKN070 BKN100 11/08 Q1004 NOSIG WNW (300°) 13.8mph 11°C 8°C
5/06/20 07:30 EICK 050630Z 31014KT 9999 SCT012 BKN070 11/08 Q1004 NOSIG NW (310°) 16.1mph 11°C 8°C
5/06/20 07:00 EICK 050600Z 30018KT 9999 SCT013 BKN070 11/08 Q1004 NOSIG WNW (300°) 20.7mph 11°C 8°C
5/06/20 06:00 EICK 050500Z 30015KT 9999 SCT015 SCT030 BKN090 11/08 Q1004 NOSIG WNW (300°) 17.3mph 11°C 8°C
5/06/20 05:30 EICK 050430Z 30015KT 9999 FEW009 SCT026 BKN090 10/08 Q1004 NOSIG WNW (300°) 17.3mph 10°C 8°C
5/06/20 05:00 EICK 050400Z 30015KT 9999 FEW009 SCT020 BKN110 10/08 Q1003 NOSIG WNW (300°) 17.3mph 10°C 8°C
5/06/20 04:30 EICK 050330Z 30014KT 9999 FEW015 BKN090 10/08 Q1004 NOSIG WNW (300°) 16.1mph 10°C 8°C
5/06/20 04:00 EICK 050300Z 30012KT 9999 FEW015 BKN110 10/07 Q1004 NOSIG WNW (300°) 13.8mph 10°C 7°C
5/06/20 03:30 EICK 050230Z 31013KT 9999 FEW015 BKN140 10/07 Q1004 NOSIG NW (310°) 15.0mph 10°C 7°C
5/06/20 03:00 EICK 050200Z 31014KT 9999 FEW015 BKN140 10/07 Q1004 NOSIG NW (310°) 16.1mph 10°C 7°C
5/06/20 02:30 EICK 050130Z 31016KT 9999 FEW015 SCT023 BKN140 11/08 Q1004 NOSIG NW (310°) 18.4mph 11°C 8°C
5/06/20 02:00 EICK 050100Z 31017KT 9999 FEW009 SCT013 BKN019 11/08 Q1005 NOSIG NW (310°) 19.6mph 11°C 8°C
5/06/20 01:30 EICK 050030Z 32012KT 9999 FEW009 BKN012 BKN023 11/08 Q1005 NOSIG NW (320°) 13.8mph 11°C 8°C
5/06/20 01:00 EICK 050000Z 32014KT 9999 FEW009 BKN014 BKN025 11/08 Q1005 NOSIG NW (320°) 16.1mph 11°C 8°C
5/06/20 00:30 EICK 042330Z 32013KT 9999 SCT009 SCT012 BKN023 11/08 Q1005 NOSIG NW (320°) 15.0mph 11°C 8°C
5/06/20 00:00 EICK 042300Z 31012KT 9999 SCT009 BKN011 11/09 Q1005 NOSIG NW (310°) 13.8mph 11°C 9°C
4/06/20 23:30 EICK 042230Z 31012KT 9999 SCT009 BKN012 BKN020 11/09 Q1005 NOSIG NW (310°) 13.8mph 11°C 9°C
4/06/20 23:00 EICK 042200Z 31013KT 270V340 9999 FEW009 BKN012 11/09 Q1005 NOSIG NW (310°) 15.0mph 11°C 9°C
4/06/20 22:30 EICK 042130Z 31012KT 9999 FEW009 BKN012 BKN028 11/09 Q1005 NOSIG NW (310°) 13.8mph 11°C 9°C
4/06/20 22:00 EICK 042100Z 31011KT 9999 BKN012 BKN015 12/09 Q1005 NOSIG NW (310°) 12.7mph 12°C 9°C
4/06/20 21:30 EICK 042030Z 31012KT 9999 SCT012 BKN015 12/09 Q1005 TEMPO BKN012 NW (310°) 13.8mph 12°C 9°C
4/06/20 21:00 EICK 042000Z 31014KT 9999 FEW012 BKN015 12/09 Q1005 TEMPO BKN012 NW (310°) 16.1mph 12°C 9°C
4/06/20 20:30 EICK 041930Z 31015KT 9999 FEW012 BKN017 13/09 Q1005 TEMPO BKN012 NW (310°) 17.3mph 13°C 9°C
4/06/20 20:00 EICK 041900Z 30014KT 9999 BKN017 BKN025 13/09 Q1005 TEMPO BKN012 WNW (300°) 16.1mph 13°C 9°C
4/06/20 19:30 EICK 041830Z 31017KT 9999 BKN014 BKN020 13/09 Q1005 TEMPO BKN010 NW (310°) 19.6mph 13°C 9°C
4/06/20 19:00 EICK 041800Z 31015KT 9999 BKN012 BKN021 13/10 Q1005 TEMPO BKN010 NW (310°) 17.3mph 13°C 10°C
4/06/20 18:30 EICK 041730Z 30014KT 9999 BKN013 BKN021 13/10 Q1005 TEMPO BKN010 WNW (300°) 16.1mph 13°C 10°C
4/06/20 18:00 EICK 041700Z 30016KT 9999 BKN012 BKN021 13/10 Q1006 TEMPO BKN010 WNW (300°) 18.4mph 13°C 10°C
4/06/20 17:30 EICK 041630Z 30015KT 9999 BKN014 BKN021 BKN033 13/10 Q1006 TEMPO BKN010 WNW (300°) 17.3mph 13°C 10°C
4/06/20 17:00 EICK 041600Z 30018KT 9999 BKN012 BKN020 13/10 Q1006 TEMPO BKN010 WNW (300°) 20.7mph 13°C 10°C
4/06/20 16:30 EICK 041530Z 30017KT 9999 SCT013 BKN020 13/10 Q1006 TEMPO BKN010 WNW (300°) 19.6mph 13°C 10°C
4/06/20 16:00 EICK 041500Z 30018KT 9999 SCT012 BKN020 13/10 Q1007 TEMPO BKN010 WNW (300°) 20.7mph 13°C 10°C
4/06/20 15:30 EICK 041430Z 29016KT 9999 BKN012 BKN019 13/10 Q1007 TEMPO BKN010 WNW (290°) 18.4mph 13°C 10°C
4/06/20 15:00 EICK 041400Z 29017KT 9999 SCT011 BKN018 BKN029 13/10 Q1007 TEMPO BKN010 WNW (290°) 19.6mph 13°C 10°C
4/06/20 14:30 EICK 041330Z 30015KT 9999 BKN011 BKN018 13/10 Q1008 TEMPO BKN010 WNW (300°) 17.3mph 13°C 10°C
4/06/20 14:00 EICK 041300Z 29018KT 9999 BKN013 BKN020 13/09 Q1008 TEMPO 5000 BKN007 WNW (290°) 20.7mph 13°C 9°C
4/06/20 13:30 EICK 041230Z 29018KT 9999 BKN014 BKN022 13/09 Q1008 TEMPO 5000 BKN007 WNW (290°) 20.7mph 13°C 9°C
4/06/20 13:00 EICK 041200Z 30015KT 9999 BKN013 BKN022 BKN033 13/09 Q1008 TEMPO 5000 BKN007 WNW (300°) 17.3mph 13°C 9°C
4/06/20 12:30 EICK 041130Z 30014KT 9999 BKN012 BKN019 12/09 Q1009 TEMPO 5000 BKN007 WNW (300°) 16.1mph 12°C 9°C
4/06/20 12:00 EICK 041100Z 30012KT 6000 -DZ SCT009 BKN016 12/09 Q1010 TEMPO 5000 BKN007 -DZ WNW (300°) 13.8mph 12°C 9°C
4/06/20 11:30 EICK 041030Z 29011KT 9000 -DZ BKN014 BKN026 12/08 Q1010 TEMPO 5000 BKN007 -DZ WNW (290°) 12.7mph 12°C 8°C
4/06/20 11:00 EICK 041000Z 32015KT 9999 FEW007 SCT020 BKN029 12/08 Q1010 TEMPO 5000 BKN007 NW (320°) 17.3mph 12°C 8°C
4/06/20 10:30 EICK 040930Z 32014KT 9000 -RADZ BKN007 BKN014 11/09 Q1010 TEMPO 5000 -RA -DZ NW (320°) 16.1mph 11°C 9°C
4/06/20 10:00 EICK 040900Z 32013KT 9999 BKN011 BKN020 11/08 Q1011 NOSIG NW (320°) 15.0mph 11°C 8°C